sensor_id;sensor_type;location;lat;lon;timestamp;P1;durP1;ratioP1;P2;durP2;ratioP2
10299;SDS011;5195;48.562;9.192;2023-06-14T00:00:09;4.47;;;4.10;;
10299;SDS011;5195;48.562;9.192;2023-06-14T00:02:35;4.77;;;4.00;;
10299;SDS011;5195;48.562;9.192;2023-06-14T00:05:00;4.03;;;3.60;;
10299;SDS011;5195;48.562;9.192;2023-06-14T00:10:09;4.30;;;4.00;;
10299;SDS011;5195;48.562;9.192;2023-06-14T00:12:34;5.10;;;3.97;;
10299;SDS011;5195;48.562;9.192;2023-06-14T00:15:00;4.15;;;3.85;;
10299;SDS011;5195;48.562;9.192;2023-06-14T00:17:25;4.43;;;4.13;;
10299;SDS011;5195;48.562;9.192;2023-06-14T00:19:51;4.32;;;3.92;;
10299;SDS011;5195;48.562;9.192;2023-06-14T00:22:16;4.33;;;4.03;;
10299;SDS011;5195;48.562;9.192;2023-06-14T00:24:42;4.77;;;4.37;;
10299;SDS011;5195;48.562;9.192;2023-06-14T00:27:08;6.10;;;4.07;;
10299;SDS011;5195;48.562;9.192;2023-06-14T00:29:34;4.23;;;3.93;;
10299;SDS011;5195;48.562;9.192;2023-06-14T00:32:00;4.07;;;3.73;;
10299;SDS011;5195;48.562;9.192;2023-06-14T00:34:25;4.22;;;3.92;;
10299;SDS011;5195;48.562;9.192;2023-06-14T00:36:51;4.77;;;4.37;;
10299;SDS011;5195;48.562;9.192;2023-06-14T00:39:17;5.07;;;4.47;;
10299;SDS011;5195;48.562;9.192;2023-06-14T00:41:42;4.20;;;3.90;;
10299;SDS011;5195;48.562;9.192;2023-06-14T00:44:08;4.53;;;4.20;;
10299;SDS011;5195;48.562;9.192;2023-06-14T00:46:33;4.40;;;4.00;;
10299;SDS011;5195;48.562;9.192;2023-06-14T00:48:59;4.13;;;3.83;;
10299;SDS011;5195;48.562;9.192;2023-06-14T00:51:24;4.77;;;4.37;;
10299;SDS011;5195;48.562;9.192;2023-06-14T00:53:50;4.40;;;4.10;;
10299;SDS011;5195;48.562;9.192;2023-06-14T00:56:15;4.37;;;4.03;;
10299;SDS011;5195;48.562;9.192;2023-06-14T00:58:41;4.47;;;4.20;;
10299;SDS011;5195;48.562;9.192;2023-06-14T01:01:06;4.65;;;4.25;;
10299;SDS011;5195;48.562;9.192;2023-06-14T01:03:32;4.60;;;4.28;;
10299;SDS011;5195;48.562;9.192;2023-06-14T01:09:01;5.32;;;4.82;;
10299;SDS011;5195;48.562;9.192;2023-06-14T01:11:07;5.10;;;4.80;;
10299;SDS011;5195;48.562;9.192;2023-06-14T01:13:35;5.25;;;4.60;;
10299;SDS011;5195;48.562;9.192;2023-06-14T01:16:01;4.77;;;4.40;;
10299;SDS011;5195;48.562;9.192;2023-06-14T01:18:28;4.50;;;4.10;;
10299;SDS011;5195;48.562;9.192;2023-06-14T01:20:53;5.03;;;4.50;;
10299;SDS011;5195;48.562;9.192;2023-06-14T01:23:19;5.05;;;4.65;;
10299;SDS011;5195;48.562;9.192;2023-06-14T01:25:45;4.73;;;4.43;;
10299;SDS011;5195;48.562;9.192;2023-06-14T01:28:11;4.70;;;4.40;;
10299;SDS011;5195;48.562;9.192;2023-06-14T01:30:38;5.12;;;4.82;;
10299;SDS011;5195;48.562;9.192;2023-06-14T01:33:02;4.80;;;4.50;;
10299;SDS011;5195;48.562;9.192;2023-06-14T01:35:28;5.40;;;4.83;;
10299;SDS011;5195;48.562;9.192;2023-06-14T01:37:55;5.37;;;4.87;;
10299;SDS011;5195;48.562;9.192;2023-06-14T01:40:21;4.13;;;3.77;;
10299;SDS011;5195;48.562;9.192;2023-06-14T01:42:49;4.82;;;4.50;;
10299;SDS011;5195;48.562;9.192;2023-06-14T01:45:15;4.40;;;4.00;;
10299;SDS011;5195;48.562;9.192;2023-06-14T01:47:40;4.27;;;4.00;;
10299;SDS011;5195;48.562;9.192;2023-06-14T01:50:07;5.13;;;4.80;;
10299;SDS011;5195;48.562;9.192;2023-06-14T01:52:32;4.03;;;3.73;;
10299;SDS011;5195;48.562;9.192;2023-06-14T01:54:58;4.72;;;4.40;;
10299;SDS011;5195;48.562;9.192;2023-06-14T01:57:24;4.10;;;3.90;;
10299;SDS011;5195;48.562;9.192;2023-06-14T01:59:50;4.57;;;4.17;;
10299;SDS011;5195;48.562;9.192;2023-06-14T02:02:16;3.97;;;3.77;;
10299;SDS011;5195;48.562;9.192;2023-06-14T02:04:41;4.10;;;3.70;;
10299;SDS011;5195;48.562;9.192;2023-06-14T02:07:07;4.78;;;4.45;;
10299;SDS011;5195;48.562;9.192;2023-06-14T02:09:35;4.67;;;4.27;;
10299;SDS011;5195;48.562;9.192;2023-06-14T02:12:01;4.33;;;4.03;;
10299;SDS011;5195;48.562;9.192;2023-06-14T02:14:27;4.17;;;3.83;;
10299;SDS011;5195;48.562;9.192;2023-06-14T02:16:52;5.57;;;4.60;;
10299;SDS011;5195;48.562;9.192;2023-06-14T02:19:18;4.82;;;4.35;;
10299;SDS011;5195;48.562;9.192;2023-06-14T02:21:44;4.10;;;3.90;;
10299;SDS011;5195;48.562;9.192;2023-06-14T02:24:10;4.93;;;4.30;;
10299;SDS011;5195;48.562;9.192;2023-06-14T02:26:36;5.07;;;4.65;;
10299;SDS011;5195;48.562;9.192;2023-06-14T02:29:01;4.82;;;4.53;;
10299;SDS011;5195;48.562;9.192;2023-06-14T02:31:28;4.80;;;4.50;;
10299;SDS011;5195;48.562;9.192;2023-06-14T02:33:53;4.10;;;3.73;;
10299;SDS011;5195;48.562;9.192;2023-06-14T02:36:19;4.13;;;3.83;;
10299;SDS011;5195;48.562;9.192;2023-06-14T02:38:44;4.83;;;4.53;;
10299;SDS011;5195;48.562;9.192;2023-06-14T02:41:11;5.32;;;4.93;;
10299;SDS011;5195;48.562;9.192;2023-06-14T02:43:36;4.70;;;4.40;;
10299;SDS011;5195;48.562;9.192;2023-06-14T02:46:02;5.03;;;4.67;;
10299;SDS011;5195;48.562;9.192;2023-06-14T02:48:28;4.87;;;4.50;;
10299;SDS011;5195;48.562;9.192;2023-06-14T02:50:54;4.70;;;4.40;;
10299;SDS011;5195;48.562;9.192;2023-06-14T02:53:19;5.05;;;4.65;;
10299;SDS011;5195;48.562;9.192;2023-06-14T02:55:45;5.20;;;4.80;;
10299;SDS011;5195;48.562;9.192;2023-06-14T02:58:10;4.80;;;4.50;;
10299;SDS011;5195;48.562;9.192;2023-06-14T03:00:37;5.00;;;4.60;;
10299;SDS011;5195;48.562;9.192;2023-06-14T03:03:03;4.57;;;4.37;;
10299;SDS011;5195;48.562;9.192;2023-06-14T03:05:29;4.70;;;4.40;;
10299;SDS011;5195;48.562;9.192;2023-06-14T03:07:54;4.80;;;4.50;;
10299;SDS011;5195;48.562;9.192;2023-06-14T03:10:20;4.95;;;4.65;;
10299;SDS011;5195;48.562;9.192;2023-06-14T03:12:45;4.43;;;4.23;;
10299;SDS011;5195;48.562;9.192;2023-06-14T03:15:12;5.40;;;4.90;;
10299;SDS011;5195;48.562;9.192;2023-06-14T03:17:37;5.20;;;4.90;;
10299;SDS011;5195;48.562;9.192;2023-06-14T03:20:03;4.83;;;4.50;;
10299;SDS011;5195;48.562;9.192;2023-06-14T03:22:28;4.97;;;4.57;;
10299;SDS011;5195;48.562;9.192;2023-06-14T03:24:54;5.00;;;4.70;;
10299;SDS011;5195;48.562;9.192;2023-06-14T03:27:19;4.90;;;4.60;;
10299;SDS011;5195;48.562;9.192;2023-06-14T03:29:45;4.87;;;4.57;;
10299;SDS011;5195;48.562;9.192;2023-06-14T03:32:11;4.70;;;4.33;;
10299;SDS011;5195;48.562;9.192;2023-06-14T03:34:36;4.27;;;4.07;;
10299;SDS011;5195;48.562;9.192;2023-06-14T03:37:02;5.40;;;4.57;;
10299;SDS011;5195;48.562;9.192;2023-06-14T03:39:29;4.93;;;4.60;;
10299;SDS011;5195;48.562;9.192;2023-06-14T03:41:54;4.50;;;4.20;;
10299;SDS011;5195;48.562;9.192;2023-06-14T03:44:20;4.85;;;4.45;;
10299;SDS011;5195;48.562;9.192;2023-06-14T03:46:46;4.97;;;4.67;;
10299;SDS011;5195;48.562;9.192;2023-06-14T03:49:12;4.53;;;4.23;;
10299;SDS011;5195;48.562;9.192;2023-06-14T03:51:38;4.37;;;4.00;;
10299;SDS011;5195;48.562;9.192;2023-06-14T03:54:04;4.90;;;4.50;;
10299;SDS011;5195;48.562;9.192;2023-06-14T03:56:29;4.83;;;4.40;;
10299;SDS011;5195;48.562;9.192;2023-06-14T03:58:55;4.80;;;4.50;;
10299;SDS011;5195;48.562;9.192;2023-06-14T04:01:21;4.90;;;4.57;;
10299;SDS011;5195;48.562;9.192;2023-06-14T04:03:46;5.03;;;4.55;;
10299;SDS011;5195;48.562;9.192;2023-06-14T04:06:12;4.63;;;4.30;;
10299;SDS011;5195;48.562;9.192;2023-06-14T04:08:40;4.70;;;4.43;;
10299;SDS011;5195;48.562;9.192;2023-06-14T04:11:05;4.80;;;4.17;;
10299;SDS011;5195;48.562;9.192;2023-06-14T04:13:32;5.03;;;4.68;;
10299;SDS011;5195;48.562;9.192;2023-06-14T04:15:57;4.90;;;4.53;;
10299;SDS011;5195;48.562;9.192;2023-06-14T04:18:24;5.15;;;4.85;;
10299;SDS011;5195;48.562;9.192;2023-06-14T04:20:50;4.77;;;4.37;;
10299;SDS011;5195;48.562;9.192;2023-06-14T04:23:17;5.07;;;4.80;;
10299;SDS011;5195;48.562;9.192;2023-06-14T04:25:41;5.43;;;5.03;;
10299;SDS011;5195;48.562;9.192;2023-06-14T04:28:07;4.83;;;4.43;;
10299;SDS011;5195;48.562;9.192;2023-06-14T04:30:32;4.33;;;4.13;;
10299;SDS011;5195;48.562;9.192;2023-06-14T04:33:00;4.40;;;4.20;;
10299;SDS011;5195;48.562;9.192;2023-06-14T04:35:26;5.10;;;4.73;;
10299;SDS011;5195;48.562;9.192;2023-06-14T04:37:53;8.20;;;4.60;;
10299;SDS011;5195;48.562;9.192;2023-06-14T04:40:19;5.40;;;5.00;;
10299;SDS011;5195;48.562;9.192;2023-06-14T04:42:44;5.75;;;5.25;;
10299;SDS011;5195;48.562;9.192;2023-06-14T04:45:10;6.05;;;5.57;;
10299;SDS011;5195;48.562;9.192;2023-06-14T04:47:36;4.70;;;4.40;;
10299;SDS011;5195;48.562;9.192;2023-06-14T04:50:01;5.70;;;5.20;;
10299;SDS011;5195;48.562;9.192;2023-06-14T04:52:28;5.70;;;5.20;;
10299;SDS011;5195;48.562;9.192;2023-06-14T04:54:53;5.60;;;5.10;;
10299;SDS011;5195;48.562;9.192;2023-06-14T04:57:22;5.82;;;5.35;;
10299;SDS011;5195;48.562;9.192;2023-06-14T04:59:48;5.00;;;4.50;;
10299;SDS011;5195;48.562;9.192;2023-06-14T05:02:13;4.50;;;4.20;;
10299;SDS011;5195;48.562;9.192;2023-06-14T05:04:38;5.30;;;4.97;;
10299;SDS011;5195;48.562;9.192;2023-06-14T05:07:04;5.60;;;5.20;;
10299;SDS011;5195;48.562;9.192;2023-06-14T05:09:33;5.40;;;5.07;;
10299;SDS011;5195;48.562;9.192;2023-06-14T05:11:59;5.00;;;4.70;;
10299;SDS011;5195;48.562;9.192;2023-06-14T05:14:24;5.60;;;5.20;;
10299;SDS011;5195;48.562;9.192;2023-06-14T05:16:50;5.07;;;4.77;;
10299;SDS011;5195;48.562;9.192;2023-06-14T05:19:16;5.60;;;5.20;;
10299;SDS011;5195;48.562;9.192;2023-06-14T05:21:43;6.07;;;5.40;;
10299;SDS011;5195;48.562;9.192;2023-06-14T05:24:09;5.47;;;5.17;;
10299;SDS011;5195;48.562;9.192;2023-06-14T05:26:35;9.33;;;5.37;;
10299;SDS011;5195;48.562;9.192;2023-06-14T05:29:01;5.80;;;5.40;;
10299;SDS011;5195;48.562;9.192;2023-06-14T05:31:27;5.60;;;5.20;;
10299;SDS011;5195;48.562;9.192;2023-06-14T05:33:53;5.43;;;5.03;;
10299;SDS011;5195;48.562;9.192;2023-06-14T05:36:19;5.20;;;4.67;;
10299;SDS011;5195;48.562;9.192;2023-06-14T05:38:45;5.00;;;4.60;;
10299;SDS011;5195;48.562;9.192;2023-06-14T05:41:10;5.75;;;5.25;;
10299;SDS011;5195;48.562;9.192;2023-06-14T05:43:36;5.50;;;5.10;;
10299;SDS011;5195;48.562;9.192;2023-06-14T05:46:01;5.90;;;4.90;;
10299;SDS011;5195;48.562;9.192;2023-06-14T05:48:27;5.20;;;4.80;;
10299;SDS011;5195;48.562;9.192;2023-06-14T05:50:53;4.90;;;4.50;;
10299;SDS011;5195;48.562;9.192;2023-06-14T05:53:19;5.37;;;4.95;;
10299;SDS011;5195;48.562;9.192;2023-06-14T05:55:44;4.95;;;4.40;;
10299;SDS011;5195;48.562;9.192;2023-06-14T05:58:11;5.40;;;4.97;;
10299;SDS011;5195;48.562;9.192;2023-06-14T06:00:37;6.20;;;5.60;;
10299;SDS011;5195;48.562;9.192;2023-06-14T06:03:04;5.30;;;4.90;;
10299;SDS011;5195;48.562;9.192;2023-06-14T06:05:30;4.97;;;4.63;;
10299;SDS011;5195;48.562;9.192;2023-06-14T06:07:55;5.50;;;5.10;;
10299;SDS011;5195;48.562;9.192;2023-06-14T06:10:21;5.80;;;5.30;;
10299;SDS011;5195;48.562;9.192;2023-06-14T06:12:46;6.00;;;5.50;;
10299;SDS011;5195;48.562;9.192;2023-06-14T06:15:12;6.55;;;5.80;;
10299;SDS011;5195;48.562;9.192;2023-06-14T06:17:38;5.23;;;4.87;;
10299;SDS011;5195;48.562;9.192;2023-06-14T06:20:04;6.00;;;5.50;;
10299;SDS011;5195;48.562;9.192;2023-06-14T06:22:29;5.30;;;4.90;;
10299;SDS011;5195;48.562;9.192;2023-06-14T06:24:54;5.30;;;5.00;;
10299;SDS011;5195;48.562;9.192;2023-06-14T06:27:20;6.77;;;5.37;;
10299;SDS011;5195;48.562;9.192;2023-06-14T06:29:46;5.78;;;5.30;;
10299;SDS011;5195;48.562;9.192;2023-06-14T06:32:13;6.78;;;5.72;;
10299;SDS011;5195;48.562;9.192;2023-06-14T06:34:38;6.03;;;5.53;;
10299;SDS011;5195;48.562;9.192;2023-06-14T06:37:04;5.63;;;5.13;;
10299;SDS011;5195;48.562;9.192;2023-06-14T06:39:30;5.90;;;5.43;;
10299;SDS011;5195;48.562;9.192;2023-06-14T06:41:56;6.22;;;5.72;;
10299;SDS011;5195;48.562;9.192;2023-06-14T06:44:22;6.20;;;5.70;;
10299;SDS011;5195;48.562;9.192;2023-06-14T06:46:47;5.90;;;5.50;;
10299;SDS011;5195;48.562;9.192;2023-06-14T06:49:15;5.80;;;4.80;;
10299;SDS011;5195;48.562;9.192;2023-06-14T06:51:41;6.00;;;5.40;;
10299;SDS011;5195;48.562;9.192;2023-06-14T06:54:10;5.07;;;4.87;;
10299;SDS011;5195;48.562;9.192;2023-06-14T06:56:36;5.77;;;5.17;;
10299;SDS011;5195;48.562;9.192;2023-06-14T06:59:02;6.13;;;5.63;;
10299;SDS011;5195;48.562;9.192;2023-06-14T07:01:28;5.83;;;5.43;;
10299;SDS011;5195;48.562;9.192;2023-06-14T07:03:55;5.97;;;5.40;;
10299;SDS011;5195;48.562;9.192;2023-06-14T07:06:21;5.87;;;5.30;;
10299;SDS011;5195;48.562;9.192;2023-06-14T07:08:47;6.33;;;5.63;;
10299;SDS011;5195;48.562;9.192;2023-06-14T07:11:16;6.25;;;5.78;;
10299;SDS011;5195;48.562;9.192;2023-06-14T07:13:41;6.73;;;5.80;;
10299;SDS011;5195;48.562;9.192;2023-06-14T07:16:07;5.75;;;5.30;;
10299;SDS011;5195;48.562;9.192;2023-06-14T07:18:33;5.77;;;5.33;;
10299;SDS011;5195;48.562;9.192;2023-06-14T07:20:58;5.90;;;5.40;;
10299;SDS011;5195;48.562;9.192;2023-06-14T07:23:24;5.70;;;5.30;;
10299;SDS011;5195;48.562;9.192;2023-06-14T07:25:49;5.60;;;5.20;;
10299;SDS011;5195;48.562;9.192;2023-06-14T07:28:16;6.18;;;5.62;;
10299;SDS011;5195;48.562;9.192;2023-06-14T07:30:41;6.00;;;5.47;;
10299;SDS011;5195;48.562;9.192;2023-06-14T07:33:07;5.70;;;5.30;;
10299;SDS011;5195;48.562;9.192;2023-06-14T07:35:32;5.47;;;5.03;;
10299;SDS011;5195;48.562;9.192;2023-06-14T07:37:58;6.35;;;5.80;;
10299;SDS011;5195;48.562;9.192;2023-06-14T07:40:25;6.17;;;5.60;;
10299;SDS011;5195;48.562;9.192;2023-06-14T07:42:51;7.27;;;5.43;;
10299;SDS011;5195;48.562;9.192;2023-06-14T07:45:18;5.90;;;5.40;;
10299;SDS011;5195;48.562;9.192;2023-06-14T07:47:44;5.47;;;5.07;;
10299;SDS011;5195;48.562;9.192;2023-06-14T07:50:10;5.60;;;5.30;;
10299;SDS011;5195;48.562;9.192;2023-06-14T07:52:35;6.57;;;5.40;;
10299;SDS011;5195;48.562;9.192;2023-06-14T07:55:01;7.53;;;4.80;;
10299;SDS011;5195;48.562;9.192;2023-06-14T07:57:26;6.12;;;5.47;;
10299;SDS011;5195;48.562;9.192;2023-06-14T07:59:53;6.27;;;5.40;;
10299;SDS011;5195;48.562;9.192;2023-06-14T08:02:18;5.17;;;4.60;;
10299;SDS011;5195;48.562;9.192;2023-06-14T08:04:44;6.67;;;4.47;;
10299;SDS011;5195;48.562;9.192;2023-06-14T08:07:10;4.63;;;4.30;;
10299;SDS011;5195;48.562;9.192;2023-06-14T08:09:36;5.03;;;4.63;;
10299;SDS011;5195;48.562;9.192;2023-06-14T08:12:01;4.60;;;4.30;;
10299;SDS011;5195;48.562;9.192;2023-06-14T08:14:27;4.70;;;4.13;;
10299;SDS011;5195;48.562;9.192;2023-06-14T08:16:53;4.80;;;4.40;;
10299;SDS011;5195;48.562;9.192;2023-06-14T08:19:19;4.80;;;4.50;;
10299;SDS011;5195;48.562;9.192;2023-06-14T08:21:44;5.22;;;4.72;;
10299;SDS011;5195;48.562;9.192;2023-06-14T08:24:10;6.10;;;4.30;;
10299;SDS011;5195;48.562;9.192;2023-06-14T08:26:36;4.10;;;3.83;;
10299;SDS011;5195;48.562;9.192;2023-06-14T08:29:02;5.17;;;4.30;;
10299;SDS011;5195;48.562;9.192;2023-06-14T08:31:27;4.57;;;4.20;;
10299;SDS011;5195;48.562;9.192;2023-06-14T08:33:53;4.40;;;4.03;;
10299;SDS011;5195;48.562;9.192;2023-06-14T08:36:19;4.27;;;3.97;;
10299;SDS011;5195;48.562;9.192;2023-06-14T08:38:44;5.30;;;4.67;;
10299;SDS011;5195;48.562;9.192;2023-06-14T08:41:10;5.03;;;4.57;;
10299;SDS011;5195;48.562;9.192;2023-06-14T08:43:35;6.07;;;4.70;;
10299;SDS011;5195;48.562;9.192;2023-06-14T08:46:02;5.07;;;4.67;;
10299;SDS011;5195;48.562;9.192;2023-06-14T08:48:26;5.33;;;4.83;;
10299;SDS011;5195;48.562;9.192;2023-06-14T08:50:53;5.35;;;4.60;;
10299;SDS011;5195;48.562;9.192;2023-06-14T08:53:18;5.30;;;4.80;;
10299;SDS011;5195;48.562;9.192;2023-06-14T08:55:44;5.53;;;4.77;;
10299;SDS011;5195;48.562;9.192;2023-06-14T08:58:09;6.03;;;5.10;;
10299;SDS011;5195;48.562;9.192;2023-06-14T09:00:35;6.10;;;4.83;;
10299;SDS011;5195;48.562;9.192;2023-06-14T09:03:00;5.43;;;4.93;;
10299;SDS011;5195;48.562;9.192;2023-06-14T09:05:26;5.05;;;4.65;;
10299;SDS011;5195;48.562;9.192;2023-06-14T09:07:52;4.93;;;4.50;;
10299;SDS011;5195;48.562;9.192;2023-06-14T09:10:17;6.93;;;4.68;;
10299;SDS011;5195;48.562;9.192;2023-06-14T09:12:43;5.07;;;4.60;;
10299;SDS011;5195;48.562;9.192;2023-06-14T09:15:08;6.07;;;4.57;;
10299;SDS011;5195;48.562;9.192;2023-06-14T09:17:38;5.30;;;4.90;;
10299;SDS011;5195;48.562;9.192;2023-06-14T09:20:04;5.37;;;4.97;;
10299;SDS011;5195;48.562;9.192;2023-06-14T09:22:43;5.70;;;4.43;;
10299;SDS011;5195;48.562;9.192;2023-06-14T09:25:09;5.27;;;4.77;;
10299;SDS011;5195;48.562;9.192;2023-06-14T09:27:34;4.90;;;4.60;;
10299;SDS011;5195;48.562;9.192;2023-06-14T09:30:00;6.87;;;4.75;;
10299;SDS011;5195;48.562;9.192;2023-06-14T09:32:25;4.33;;;4.03;;
10299;SDS011;5195;48.562;9.192;2023-06-14T09:34:52;5.23;;;4.83;;
10299;SDS011;5195;48.562;9.192;2023-06-14T09:37:27;5.30;;;4.60;;
10299;SDS011;5195;48.562;9.192;2023-06-14T09:39:52;6.17;;;5.40;;
10299;SDS011;5195;48.562;9.192;2023-06-14T09:42:18;6.03;;;4.68;;
10299;SDS011;5195;48.562;9.192;2023-06-14T09:44:49;4.80;;;4.30;;
10299;SDS011;5195;48.562;9.192;2023-06-14T09:47:15;5.37;;;4.47;;
10299;SDS011;5195;48.562;9.192;2023-06-14T09:49:40;5.03;;;3.93;;
10299;SDS011;5195;48.562;9.192;2023-06-14T09:52:06;4.77;;;4.07;;
10299;SDS011;5195;48.562;9.192;2023-06-14T09:54:32;4.97;;;4.60;;
10299;SDS011;5195;48.562;9.192;2023-06-14T09:56:59;5.45;;;4.60;;
10299;SDS011;5195;48.562;9.192;2023-06-14T09:59:26;5.03;;;4.50;;
10299;SDS011;5195;48.562;9.192;2023-06-14T10:01:51;6.13;;;4.20;;
10299;SDS011;5195;48.562;9.192;2023-06-14T10:04:18;4.30;;;4.10;;
10299;SDS011;5195;48.562;9.192;2023-06-14T10:06:43;4.43;;;4.13;;
10299;SDS011;5195;48.562;9.192;2023-06-14T10:09:08;4.30;;;4.00;;
10299;SDS011;5195;48.562;9.192;2023-06-14T10:11:36;6.62;;;4.15;;
10299;SDS011;5195;48.562;9.192;2023-06-14T10:14:04;4.70;;;4.00;;
10299;SDS011;5195;48.562;9.192;2023-06-14T10:16:30;4.57;;;4.20;;
10299;SDS011;5195;48.562;9.192;2023-06-14T10:19:09;4.77;;;4.47;;
10299;SDS011;5195;48.562;9.192;2023-06-14T10:21:50;5.60;;;4.30;;
10299;SDS011;5195;48.562;9.192;2023-06-14T10:24:15;4.60;;;4.20;;
10299;SDS011;5195;48.562;9.192;2023-06-14T10:26:51;4.57;;;4.27;;
10299;SDS011;5195;48.562;9.192;2023-06-14T10:29:16;6.80;;;4.20;;
10299;SDS011;5195;48.562;9.192;2023-06-14T10:31:48;4.53;;;4.13;;
10299;SDS011;5195;48.562;9.192;2023-06-14T10:34:11;4.07;;;3.87;;
10299;SDS011;5195;48.562;9.192;2023-06-14T10:36:36;4.53;;;4.25;;
10299;SDS011;5195;48.562;9.192;2023-06-14T10:39:06;4.73;;;4.33;;
10299;SDS011;5195;48.562;9.192;2023-06-14T10:41:34;4.50;;;4.10;;
10299;SDS011;5195;48.562;9.192;2023-06-14T10:46:49;3.97;;;3.77;;
10299;SDS011;5195;48.562;9.192;2023-06-14T10:49:11;4.32;;;3.95;;
10299;SDS011;5195;48.562;9.192;2023-06-14T10:51:41;4.47;;;4.07;;
10299;SDS011;5195;48.562;9.192;2023-06-14T10:54:12;4.93;;;4.53;;
10299;SDS011;5195;48.562;9.192;2023-06-14T10:56:38;4.50;;;4.30;;
10299;SDS011;5195;48.562;9.192;2023-06-14T10:59:03;4.23;;;3.90;;
10299;SDS011;5195;48.562;9.192;2023-06-14T11:01:36;4.00;;;3.80;;
10299;SDS011;5195;48.562;9.192;2023-06-14T11:04:08;4.60;;;4.20;;
10299;SDS011;5195;48.562;9.192;2023-06-14T11:06:44;6.67;;;3.90;;
10299;SDS011;5195;48.562;9.192;2023-06-14T11:09:20;5.27;;;4.40;;
10299;SDS011;5195;48.562;9.192;2023-06-14T11:11:54;4.80;;;4.30;;
10299;SDS011;5195;48.562;9.192;2023-06-14T11:14:20;6.87;;;4.30;;
10299;SDS011;5195;48.562;9.192;2023-06-14T11:16:49;5.40;;;4.90;;
10299;SDS011;5195;48.562;9.192;2023-06-14T11:19:14;4.80;;;4.40;;
10299;SDS011;5195;48.562;9.192;2023-06-14T11:21:41;4.80;;;4.40;;
10299;SDS011;5195;48.562;9.192;2023-06-14T11:24:09;4.47;;;4.17;;
10299;SDS011;5195;48.562;9.192;2023-06-14T11:29:29;5.15;;;4.62;;
10299;SDS011;5195;48.562;9.192;2023-06-14T11:32:06;5.67;;;4.77;;
10299;SDS011;5195;48.562;9.192;2023-06-14T11:34:40;5.10;;;4.27;;
10299;SDS011;5195;48.562;9.192;2023-06-14T11:37:17;5.07;;;4.37;;
10299;SDS011;5195;48.562;9.192;2023-06-14T11:39:51;4.97;;;4.60;;
10299;SDS011;5195;48.562;9.192;2023-06-14T11:42:27;3.97;;;3.63;;
10299;SDS011;5195;48.562;9.192;2023-06-14T11:45:03;4.50;;;4.30;;
10299;SDS011;5195;48.562;9.192;2023-06-14T11:47:39;4.73;;;4.50;;
10299;SDS011;5195;48.562;9.192;2023-06-14T11:50:14;5.30;;;4.90;;
10299;SDS011;5195;48.562;9.192;2023-06-14T11:52:54;5.10;;;4.68;;
10299;SDS011;5195;48.562;9.192;2023-06-14T11:55:29;5.27;;;4.73;;
10299;SDS011;5195;48.562;9.192;2023-06-14T11:58:07;5.30;;;4.70;;
10299;SDS011;5195;48.562;9.192;2023-06-14T12:00:42;5.97;;;4.37;;
10299;SDS011;5195;48.562;9.192;2023-06-14T12:03:22;5.93;;;4.70;;
10299;SDS011;5195;48.562;9.192;2023-06-14T12:06:07;5.87;;;4.60;;
10299;SDS011;5195;48.562;9.192;2023-06-14T12:08:43;5.15;;;4.70;;
10299;SDS011;5195;48.562;9.192;2023-06-14T12:11:19;4.97;;;4.50;;
10299;SDS011;5195;48.562;9.192;2023-06-14T12:13:56;5.10;;;4.70;;
10299;SDS011;5195;48.562;9.192;2023-06-14T12:16:33;4.80;;;4.33;;
10299;SDS011;5195;48.562;9.192;2023-06-14T12:19:16;6.57;;;4.87;;
10299;SDS011;5195;48.562;9.192;2023-06-14T12:21:52;5.10;;;4.60;;
10299;SDS011;5195;48.562;9.192;2023-06-14T12:24:31;6.47;;;4.80;;
10299;SDS011;5195;48.562;9.192;2023-06-14T12:27:08;6.00;;;4.40;;
10299;SDS011;5195;48.562;9.192;2023-06-14T12:29:46;6.23;;;4.47;;
10299;SDS011;5195;48.562;9.192;2023-06-14T12:32:24;4.93;;;4.47;;
10299;SDS011;5195;48.562;9.192;2023-06-14T12:35:01;5.30;;;4.80;;
10299;SDS011;5195;48.562;9.192;2023-06-14T12:37:37;5.00;;;4.70;;
10299;SDS011;5195;48.562;9.192;2023-06-14T12:40:13;4.83;;;4.43;;
10299;SDS011;5195;48.562;9.192;2023-06-14T12:42:50;5.07;;;4.60;;
10299;SDS011;5195;48.562;9.192;2023-06-14T12:45:27;5.40;;;4.83;;
10299;SDS011;5195;48.562;9.192;2023-06-14T12:48:02;5.13;;;4.33;;
10299;SDS011;5195;48.562;9.192;2023-06-14T12:50:38;5.53;;;4.80;;
10299;SDS011;5195;48.562;9.192;2023-06-14T12:53:13;4.70;;;4.30;;
10299;SDS011;5195;48.562;9.192;2023-06-14T12:55:49;4.77;;;4.53;;
10299;SDS011;5195;48.562;9.192;2023-06-14T12:58:26;4.23;;;3.93;;
10299;SDS011;5195;48.562;9.192;2023-06-14T13:01:02;4.80;;;4.40;;
10299;SDS011;5195;48.562;9.192;2023-06-14T13:03:37;5.30;;;4.80;;
10299;SDS011;5195;48.562;9.192;2023-06-14T13:06:14;5.13;;;4.63;;
10299;SDS011;5195;48.562;9.192;2023-06-14T13:08:49;4.97;;;4.57;;
10299;SDS011;5195;48.562;9.192;2023-06-14T13:11:25;4.73;;;4.37;;
10299;SDS011;5195;48.562;9.192;2023-06-14T13:14:01;5.27;;;4.70;;
10299;SDS011;5195;48.562;9.192;2023-06-14T13:16:37;4.73;;;4.33;;
10299;SDS011;5195;48.562;9.192;2023-06-14T13:19:12;5.37;;;4.43;;
10299;SDS011;5195;48.562;9.192;2023-06-14T13:21:48;4.80;;;4.40;;
10299;SDS011;5195;48.562;9.192;2023-06-14T13:24:24;4.50;;;4.17;;
10299;SDS011;5195;48.562;9.192;2023-06-14T13:27:00;7.53;;;4.70;;
10299;SDS011;5195;48.562;9.192;2023-06-14T13:29:35;5.77;;;4.77;;
10299;SDS011;5195;48.562;9.192;2023-06-14T13:32:11;4.97;;;4.60;;
10299;SDS011;5195;48.562;9.192;2023-06-14T13:34:47;4.47;;;4.07;;
10299;SDS011;5195;48.562;9.192;2023-06-14T13:37:22;4.80;;;4.40;;
10299;SDS011;5195;48.562;9.192;2023-06-14T13:39:58;6.60;;;4.60;;
10299;SDS011;5195;48.562;9.192;2023-06-14T13:42:37;4.63;;;4.30;;
10299;SDS011;5195;48.562;9.192;2023-06-14T13:45:13;4.70;;;4.37;;
10299;SDS011;5195;48.562;9.192;2023-06-14T13:47:48;4.90;;;4.60;;
10299;SDS011;5195;48.562;9.192;2023-06-14T13:50:24;4.90;;;4.60;;
10299;SDS011;5195;48.562;9.192;2023-06-14T13:53:00;6.00;;;4.57;;
10299;SDS011;5195;48.562;9.192;2023-06-14T13:55:36;4.80;;;4.40;;
10299;SDS011;5195;48.562;9.192;2023-06-14T13:58:11;4.77;;;4.37;;
10299;SDS011;5195;48.562;9.192;2023-06-14T14:00:48;5.47;;;4.30;;
10299;SDS011;5195;48.562;9.192;2023-06-14T14:03:25;5.67;;;4.37;;
10299;SDS011;5195;48.562;9.192;2023-06-14T14:06:04;4.63;;;4.33;;
10299;SDS011;5195;48.562;9.192;2023-06-14T14:08:39;6.20;;;3.83;;
10299;SDS011;5195;48.562;9.192;2023-06-14T14:11:15;5.17;;;4.27;;
10299;SDS011;5195;48.562;9.192;2023-06-14T14:13:51;8.23;;;4.90;;
10299;SDS011;5195;48.562;9.192;2023-06-14T14:16:28;5.73;;;4.70;;
10299;SDS011;5195;48.562;9.192;2023-06-14T14:19:03;5.00;;;4.60;;
10299;SDS011;5195;48.562;9.192;2023-06-14T14:21:40;6.68;;;4.40;;
10299;SDS011;5195;48.562;9.192;2023-06-14T14:24:15;4.63;;;4.03;;
10299;SDS011;5195;48.562;9.192;2023-06-14T14:26:51;7.00;;;4.40;;
10299;SDS011;5195;48.562;9.192;2023-06-14T14:29:27;8.30;;;4.28;;
10299;SDS011;5195;48.562;9.192;2023-06-14T14:32:03;4.82;;;4.32;;
10299;SDS011;5195;48.562;9.192;2023-06-14T14:34:38;6.20;;;4.40;;
10299;SDS011;5195;48.562;9.192;2023-06-14T14:37:15;4.40;;;4.10;;
10299;SDS011;5195;48.562;9.192;2023-06-14T14:39:50;5.28;;;4.65;;
10299;SDS011;5195;48.562;9.192;2023-06-14T14:42:27;5.40;;;4.30;;
10299;SDS011;5195;48.562;9.192;2023-06-14T14:45:02;4.97;;;4.65;;
10299;SDS011;5195;48.562;9.192;2023-06-14T14:47:38;4.67;;;4.30;;
10299;SDS011;5195;48.562;9.192;2023-06-14T14:50:13;4.60;;;4.20;;
10299;SDS011;5195;48.562;9.192;2023-06-14T14:52:49;4.20;;;4.00;;
10299;SDS011;5195;48.562;9.192;2023-06-14T14:55:25;4.27;;;3.97;;
10299;SDS011;5195;48.562;9.192;2023-06-14T14:58:00;4.87;;;4.40;;
10299;SDS011;5195;48.562;9.192;2023-06-14T15:00:36;5.10;;;4.63;;
10299;SDS011;5195;48.562;9.192;2023-06-14T15:03:12;4.90;;;4.27;;
10299;SDS011;5195;48.562;9.192;2023-06-14T15:05:48;4.85;;;4.45;;
10299;SDS011;5195;48.562;9.192;2023-06-14T15:08:23;6.45;;;4.43;;
10299;SDS011;5195;48.562;9.192;2023-06-14T15:10:59;4.50;;;4.20;;
10299;SDS011;5195;48.562;9.192;2023-06-14T15:13:34;5.60;;;4.17;;
10299;SDS011;5195;48.562;9.192;2023-06-14T15:16:10;4.70;;;4.30;;
10299;SDS011;5195;48.562;9.192;2023-06-14T15:18:46;5.43;;;4.57;;